createdAt,value
2024-01-16T00:03:30.886Z,0.86
2024-01-16T00:08:32.510Z,0.83
2024-01-16T00:13:34.477Z,0.82
2024-01-16T00:18:36.189Z,0.80
2024-01-16T00:23:37.843Z,0.79
2024-01-16T00:28:44.115Z,0.81
2024-01-16T00:33:45.759Z,0.86
2024-01-16T00:38:48.204Z,0.75
2024-01-16T00:43:50.156Z,0.73
2024-01-16T00:48:51.943Z,0.76
2024-01-16T00:53:53.736Z,0.74
2024-01-16T00:58:55.454Z,0.72
2024-01-16T01:03:57.285Z,0.74
2024-01-16T01:09:00.405Z,0.67
2024-01-16T01:14:02.718Z,0.68
2024-01-16T01:19:04.496Z,0.67
2024-01-16T01:24:06.159Z,0.71
2024-01-16T01:29:08.015Z,0.78
2024-01-16T01:34:09.749Z,0.76
2024-01-16T01:39:12.256Z,0.70
2024-01-16T01:44:17.405Z,0.65
2024-01-16T01:49:19.439Z,0.69
2024-01-16T01:54:21.897Z,0.74
2024-01-16T01:59:24.623Z,0.73
2024-01-16T02:04:27.945Z,0.79
2024-01-16T02:09:30.199Z,0.79
2024-01-16T02:14:31.892Z,0.75
2024-01-16T02:19:33.574Z,0.76
2024-01-16T02:24:35.340Z,0.78
2024-01-16T02:29:42.189Z,0.76
2024-01-16T02:34:44.694Z,0.73
2024-01-16T02:39:46.361Z,0.75
2024-01-16T02:44:47.930Z,0.71
2024-01-16T02:49:49.545Z,0.71
2024-01-16T02:54:51.155Z,0.66
2024-01-16T02:59:52.804Z,0.67
2024-01-16T03:04:54.424Z,0.70
2024-01-16T03:09:56.037Z,0.72
2024-01-16T03:14:57.753Z,0.74
2024-01-16T03:19:59.648Z,0.74
2024-01-16T03:25:03.731Z,0.81
2024-01-16T03:30:06.193Z,0.83
2024-01-16T03:35:08.757Z,0.89
2024-01-16T03:40:12.414Z,0.93
2024-01-16T03:45:16.807Z,0.96
2024-01-16T03:50:19.176Z,1.05
2024-01-16T03:55:20.922Z,1.06
2024-01-16T04:00:22.766Z,1.05
2024-01-16T04:05:24.801Z,1.08
2024-01-16T04:10:26.518Z,1.13
2024-01-16T04:15:28.195Z,1.14
2024-01-16T04:20:29.835Z,1.17
2024-01-16T04:25:31.533Z,1.17
2024-01-16T04:30:33.205Z,1.15
2024-01-16T04:35:35.083Z,1.15
2024-01-16T04:40:37.610Z,1.16
2024-01-16T04:45:39.203Z,1.12
2024-01-16T04:50:40.883Z,1.01
2024-01-16T04:55:42.557Z,0.96
2024-01-16T05:00:44.156Z,0.93
2024-01-16T05:05:45.764Z,0.91
2024-01-16T05:10:47.339Z,0.82
2024-01-16T05:15:48.900Z,0.81
2024-01-16T05:20:50.459Z,0.85
2024-01-16T05:25:52.131Z,0.85
2024-01-16T05:30:53.740Z,0.84
2024-01-16T05:35:55.414Z,0.85
2024-01-16T05:40:57.037Z,0.82
2024-01-16T05:45:58.689Z,0.76
2024-01-16T05:51:01.736Z,0.72
2024-01-16T05:56:03.604Z,0.70
2024-01-16T06:01:06.091Z,0.69
2024-01-16T06:06:08.525Z,0.67
2024-01-16T06:11:14.203Z,0.63
2024-01-16T06:16:16.284Z,0.57
2024-01-16T06:21:20.465Z,0.52
2024-01-16T06:26:23.328Z,0.46
2024-01-16T06:31:27.284Z,0.48
2024-01-16T06:36:28.938Z,0.49
2024-01-16T06:41:30.621Z,0.50
2024-01-16T06:46:32.209Z,0.48
2024-01-16T06:51:33.913Z,0.45
2024-01-16T06:56:35.538Z,0.47
2024-01-16T07:01:37.071Z,0.49
2024-01-16T07:06:38.675Z,0.49
2024-01-16T07:11:43.716Z,0.51
2024-01-16T07:16:45.415Z,0.52
2024-01-16T07:21:47.264Z,0.46
2024-01-16T07:26:48.989Z,0.50
2024-01-16T07:31:50.665Z,0.53
2024-01-16T07:36:52.533Z,0.51
2024-01-16T07:41:54.096Z,0.51
2024-01-16T07:46:55.864Z,0.56
2024-01-16T07:51:57.660Z,0.69
2024-01-16T07:57:00.580Z,0.72
2024-01-16T08:02:02.262Z,0.73
2024-01-16T08:07:04.310Z,0.74
2024-01-16T08:12:07.024Z,0.67
2024-01-16T08:17:09.337Z,0.63
2024-01-16T08:22:18.105Z,0.66
2024-01-16T08:27:22.237Z,0.62
2024-01-16T08:32:24.072Z,0.61
2024-01-16T08:37:26.663Z,0.60
2024-01-16T08:42:28.261Z,0.59
2024-01-16T08:47:29.958Z,0.67
2024-01-16T08:52:31.899Z,0.73
2024-01-16T08:57:33.455Z,0.80
2024-01-16T09:02:35.086Z,0.83
2024-01-16T09:07:36.885Z,0.84
2024-01-16T09:12:38.456Z,0.91
2024-01-16T09:17:40.319Z,0.98
2024-01-16T09:22:42.101Z,0.97
2024-01-16T09:27:43.712Z,0.98
2024-01-16T09:32:46.661Z,1.02
2024-01-16T09:37:48.773Z,1.08
2024-01-16T09:42:52.117Z,1.07
2024-01-16T09:47:54.508Z,1.10
2024-01-16T09:52:59.165Z,1.09
2024-01-16T09:58:04.730Z,1.13
2024-01-16T10:03:06.983Z,1.21
2024-01-16T10:08:09.140Z,1.34
2024-01-16T10:13:10.903Z,1.42
2024-01-16T10:18:31.125Z,1.51
2024-01-16T10:23:38.076Z,1.57
2024-01-16T10:28:41.343Z,1.66
2024-01-16T10:33:43.303Z,1.64
2024-01-16T10:38:46.756Z,1.62
2024-01-16T10:43:48.707Z,1.68
2024-01-16T10:49:06.515Z,1.66
2024-01-16T10:54:15.204Z,1.66
2024-01-16T10:59:22.199Z,1.77
2024-01-16T11:04:25.099Z,1.85
2024-01-16T11:09:27.277Z,2.00
2024-01-16T11:14:31.798Z,2.17
2024-01-16T11:19:48.293Z,2.33
2024-01-16T11:25:17.098Z,2.43
2024-01-16T11:30:31.617Z,2.50
2024-01-16T11:35:38.209Z,2.58
2024-01-16T11:40:39.837Z,2.66
2024-01-16T11:45:41.335Z,2.71
2024-01-16T11:50:44.226Z,2.77
2024-01-16T11:56:11.101Z,2.82
2024-01-16T12:01:14.138Z,2.90
2024-01-16T12:06:17.813Z,3.04
2024-01-16T12:11:22.808Z,3.15
2024-01-16T12:16:28.373Z,3.21
2024-01-16T12:21:30.202Z,3.17
2024-01-16T12:26:35.529Z,3.22
2024-01-16T12:31:37.122Z,3.26
2024-01-16T12:36:39.271Z,3.32
2024-01-16T12:41:47.935Z,3.40
2024-01-16T12:47:00.126Z,3.46
2024-01-16T12:52:22.914Z,3.51
2024-01-16T12:57:25.555Z,3.55
2024-01-16T13:02:27.265Z,3.59
2024-01-16T13:07:32.029Z,3.63
2024-01-16T13:12:34.867Z,3.70
2024-01-16T13:17:37.805Z,3.70
2024-01-16T13:22:45.146Z,3.67
2024-01-16T13:27:49.891Z,3.64
2024-01-16T13:32:52.146Z,3.63
2024-01-16T13:37:54.603Z,3.65
2024-01-16T13:42:56.618Z,3.70
2024-01-16T13:47:58.780Z,3.71
2024-01-16T13:53:01.729Z,3.71
2024-01-16T13:58:04.081Z,3.70
2024-01-16T14:03:07.891Z,3.68
2024-01-16T14:08:13.180Z,3.65
2024-01-16T14:13:14.886Z,3.62
2024-01-16T14:18:16.845Z,3.61
2024-01-16T14:23:18.640Z,3.58
2024-01-16T14:33:31.602Z,3.57
2024-01-16T14:38:33.975Z,3.52
2024-01-16T14:43:36.335Z,3.47
2024-01-16T14:48:47.514Z,3.42
2024-01-16T14:53:50.023Z,3.38
2024-01-16T14:58:52.345Z,3.33
2024-01-16T15:03:55.599Z,3.28
2024-01-16T15:08:59.105Z,3.24
2024-01-16T15:14:01.895Z,3.21
2024-01-16T15:19:04.935Z,3.15
2024-01-16T15:24:07.392Z,3.09
2024-01-16T15:29:11.585Z,3.06
2024-01-16T15:34:16.784Z,3.00
2024-01-16T15:39:22.879Z,2.95
2024-01-16T15:44:25.297Z,2.93
2024-01-16T15:49:28.183Z,2.91
2024-01-16T15:54:31.800Z,2.86
2024-01-16T15:59:33.719Z,2.82
2024-01-16T16:04:36.951Z,2.81
2024-01-16T16:09:39.944Z,2.79
2024-01-16T16:14:42.466Z,2.77
2024-01-16T16:19:47.029Z,2.74
2024-01-16T16:24:49.073Z,2.72
2024-01-16T16:29:50.889Z,2.68
2024-01-16T16:34:52.881Z,2.64
2024-01-16T16:39:55.471Z,2.61
2024-01-16T16:44:57.422Z,2.61
2024-01-16T16:50:02.768Z,2.56
2024-01-16T16:55:05.613Z,2.53
2024-01-16T17:00:08.721Z,2.49
2024-01-16T17:05:10.685Z,2.45
2024-01-16T17:10:12.781Z,2.41
2024-01-16T17:15:14.974Z,2.38
2024-01-16T17:20:16.702Z,2.35
2024-01-16T17:25:18.269Z,2.34
2024-01-16T17:30:20.811Z,2.34
2024-01-16T17:35:24.896Z,2.32
2024-01-16T17:40:26.463Z,2.32
2024-01-16T17:45:28.065Z,2.31
2024-01-16T17:50:29.746Z,2.30
2024-01-16T17:55:34.401Z,2.29
2024-01-16T18:00:36.336Z,2.28
2024-01-16T18:05:38.110Z,2.25
2024-01-16T18:10:40.727Z,2.20
2024-01-16T18:15:42.855Z,2.16
2024-01-16T18:20:45.284Z,2.11
2024-01-16T18:25:49.086Z,2.08
2024-01-16T18:30:52.823Z,2.03
2024-01-16T18:35:59.269Z,2.00
2024-01-16T18:41:01.900Z,1.95
2024-01-16T18:46:04.826Z,1.92
2024-01-16T18:51:06.831Z,1.87
2024-01-16T18:56:09.109Z,1.81
2024-01-16T19:01:12.524Z,1.73
2024-01-16T19:06:14.484Z,1.68
2024-01-16T19:11:17.118Z,1.63
2024-01-16T19:16:19.567Z,1.54
2024-01-16T19:21:21.605Z,1.46
2024-01-16T19:26:23.323Z,1.38
2024-01-16T19:31:25.280Z,1.30
2024-01-16T19:36:26.960Z,1.22
2024-01-16T19:41:32.763Z,1.13
2024-01-16T19:46:34.390Z,1.06
2024-01-16T19:51:39.837Z,0.97
